This is the latest recevied weather packets stored in our database for station/object LRBS. If no packets are shown the sender has not sent any weather packets the latest 10 day(s).
| Time | Temp. | Humidity | Pressure | Rain* | Wind** | Luminosity | Snow |
|---|---|---|---|---|---|---|---|
| 1777704494 | 11.11° C | 62% | 1023 hPa | - | - | - | - |
| 1777703594 | 11.11° C | 62% | 1023 hPa | - | - | - | - |
| 1777702694 | 10° C | 71% | 1023 hPa | - | - | - | - |
| 1777701794 | 10° C | 71% | 1023 hPa | - | - | - | - |
| 1777700894 | 7.78° C | 82% | 1023 hPa | - | - | - | - |
| 1777699995 | 7.78° C | 82% | 1023 hPa | - | - | - | - |
| 1777699094 | 7.22° C | 81% | 1023 hPa | - | - | - | - |
| 1777698194 | 7.22° C | 81% | 1023 hPa | - | - | - | - |
| 1777697294 | 7.22° C | 81% | 1023 hPa | - | - | - | - |
| 1777696394 | 7.22° C | 81% | 1023 hPa | - | - | - | - |
| 1777695495 | 7.22° C | 87% | 1023 hPa | - | - | - | - |
| 1777694594 | 7.22° C | 87% | 1023 hPa | - | - | - | - |
| 1777693770 | 6.11° C | 87% | 1023 hPa | - | - | - | - |
| 1777692794 | 6.11° C | 87% | 1023 hPa | - | - | - | - |
| 1777691894 | 6.11° C | 87% | 1023 hPa | - | - | - | - |
| 1777690994 | 6.11° C | 87% | 1023 hPa | - | - | - | - |
| 1777690094 | 7.22° C | 76% | 1023 hPa | - | - | - | - |
| 1777689194 | 7.22° C | 76% | 1023 hPa | - | - | - | - |
| 1777688295 | 7.22° C | 76% | 1023 hPa | - | - | - | - |
| 1777687394 | 7.22° C | 76% | 1023 hPa | - | - | - | - |
| 1777686495 | 7.78° C | 66% | 1023 hPa | - | - | - | - |
| 1777685594 | 7.78° C | 66% | 1023 hPa | - | - | - | - |
| 1777684695 | 7.78° C | 62% | 1023 hPa | - | - | - | - |
| 1777683794 | 7.78° C | 62% | 1023 hPa | - | - | - | - |
| 1777682894 | 7.78° C | 62% | 1023 hPa | - | - | - | - |
* Rain since midnight (hover to see other rain measurements)
** Current wind speed in m/s (hover to see current wind gust speed)